Allentown, New York
Current Conditions -  °F | °C
As of 2:56 PM on Friday 24 Oct 2014 (Local Time) from KELZ Reporting Station
Clear Clear  
Wind Chill: 14°   Ceiling: Unl
Heat Index: 14°   Visibility: 10mi
Dew Point: -4°   Wind: 17mph
Humidity: 28%   Direction: 310°NW
Pressure: 29.96"   Gusts: NA
Location:  42.08°N, 78.06°W
Report Text: KELZ 241856Z AUTO 31015KT 10SM CLR 14/M04 A2996 RMK AO2 SLP147 T01391044
Loading
Personal Weather Stations






























Interactive Weather Map
Tropical Storm Tracking
New forecast layout! Learn more

10-Day Weather Forecast

Advertisements
Track Severe Weather on mobile